Time;durP1;ratioP1;P1;durP2;ratioP2;P2;SDS_P1;SDS_P2;PMS_P1;PMS_P2;Temp;Humidity;BMP_temperature;BMP_pressure;BME280_temperature;BME280_humidity;BME280_pressure;Samples;Min_cycle;Max_cycle;Signal;HPM_P1;HPM_P2
2021/12/24 00:03:33;;;;;;;41.10;25.50;;;;;8.00;100164.00;;;;10390107;28;20210;-79
2021/12/24 00:09:20;;;;;;;50.07;26.00;;;;;8.00;100160.00;;;;10375923;28;20752;-79
2021/12/24 00:15:01;;;;;;;39.57;24.47;;;;;8.00;100153.00;;;;10395318;28;20305;-79
2021/12/24 00:38:13;;;;;;;41.83;23.17;;;;;8.10;100155.00;;;;10407281;28;20226;-79
2021/12/24 00:43:49;;;;;;;33.60;21.70;;;;;8.10;100153.00;;;;10375389;28;20716;-78
2021/12/24 00:49:25;;;;;;;35.27;21.90;;;;;8.10;100155.00;;;;10373218;28;20206;-78
2021/12/24 00:55:09;;;;;;;44.93;22.23;;;;;8.20;100161.00;;;;10372858;28;20210;-79
2021/12/24 01:00:45;;;;;;;42.40;22.40;;;;;8.20;100158.00;;;;10369512;28;20202;-79
2021/12/24 01:06:21;;;;;;;39.37;21.63;;;;;8.20;100153.00;;;;10364861;28;20202;-79
2021/12/24 01:11:57;;;;;;;36.17;21.30;;;;;8.20;100156.00;;;;10400578;28;20202;-79
2021/12/24 01:23:33;;;;;;;43.73;22.53;;;;;8.20;100157.00;;;;10415114;28;20206;-78
2021/12/24 01:46:36;;;;;;;34.37;22.23;;;;;8.20;100141.00;;;;10398283;28;20214;-78
2021/12/24 01:52:15;;;;;;;36.10;20.50;;;;;8.20;100151.00;;;;10395621;28;20191;-78
2021/12/24 01:57:50;;;;;;;34.20;20.63;;;;;8.30;100151.00;;;;10427950;28;20697;-79
2021/12/24 02:03:26;;;;;;;40.17;21.80;;;;;8.30;100144.00;;;;10395477;28;20229;-79
2021/12/24 02:09:02;;;;;;;36.70;21.30;;;;;8.30;100142.00;;;;10430534;28;20206;-78
2021/12/24 02:14:40;;;;;;;37.90;22.33;;;;;8.40;100123.00;;;;10426252;28;20542;-79
2021/12/24 02:32:12;;;;;;;39.40;23.17;;;;;8.40;100118.00;;;;10380672;28;20964;-78
2021/12/24 02:37:49;;;;;;;42.20;22.17;;;;;8.40;100126.00;;;;10408855;28;20194;-79
2021/12/24 02:43:25;;;;;;;39.83;24.50;;;;;8.50;100127.00;;;;10362537;28;20212;-78
2021/12/24 02:49:11;;;;;;;39.10;23.53;;;;;8.50;100115.00;;;;10393933;28;20209;-79
2021/12/24 02:54:47;;;;;;;42.70;22.93;;;;;8.50;100115.00;;;;10358651;28;20210;-78
2021/12/24 03:00:27;;;;;;;42.00;21.50;;;;;8.50;100107.00;;;;10372207;28;20202;-78
2021/12/24 03:06:03;;;;;;;40.50;22.97;;;;;8.60;100124.00;;;;10358860;28;20215;-78
2021/12/24 03:11:41;;;;;;;42.20;20.83;;;;;8.60;100130.00;;;;10396724;28;20198;-78
2021/12/24 03:17:21;;;;;;;38.63;22.27;;;;;8.60;100128.00;;;;10392661;28;20198;-79
2021/12/24 03:23:09;;;;;;;44.13;22.53;;;;;8.60;100122.00;;;;10376817;28;20203;-78
2021/12/24 03:28:44;;;;;;;31.47;19.23;;;;;8.60;100122.00;;;;10405639;28;20195;-78
2021/12/24 03:34:24;;;;;;;36.30;21.67;;;;;8.60;100115.00;;;;10407761;28;20222;-78
2021/12/24 03:40:01;;;;;;;34.17;19.03;;;;;8.60;100129.00;;;;10406120;28;20202;-78
2021/12/24 03:46:02;;;;;;;40.93;21.93;;;;;8.70;100125.00;;;;10412022;28;20570;-78
2021/12/24 03:51:58;;;;;;;46.07;21.83;;;;;8.70;100123.00;;;;10378549;28;20202;-78
2021/12/24 03:57:46;;;;;;;42.47;21.23;;;;;8.60;100123.00;;;;10401946;28;20202;-78
2021/12/24 04:03:41;;;;;;;44.37;23.17;;;;;8.70;100110.00;;;;10380410;28;20211;-78
2021/12/24 04:09:37;;;;;;;42.80;22.07;;;;;8.70;100109.00;;;;10382679;28;20230;-78
2021/12/24 04:15:32;;;;;;;37.80;19.20;;;;;8.70;100110.00;;;;10380690;28;20199;-78
2021/12/24 04:27:04;;;;;;;42.63;21.70;;;;;8.70;100114.00;;;;10393926;28;20202;-78
2021/12/24 04:33:07;;;;;;;37.90;19.67;;;;;8.70;100112.00;;;;10393053;28;20191;-78
2021/12/24 04:39:01;;;;;;;35.70;20.10;;;;;8.70;100107.00;;;;10429734;28;20205;-78
2021/12/24 05:02:46;;;;;;;39.67;22.03;;;;;8.70;100112.00;;;;10424273;28;20186;-78
2021/12/24 05:08:24;;;;;;;48.47;22.33;;;;;8.70;100110.00;;;;10385056;28;20769;-78
2021/12/24 05:14:01;;;;;;;43.67;21.53;;;;;8.70;100121.00;;;;10400540;28;20199;-78
2021/12/24 05:26:07;;;;;;;41.37;21.77;;;;;8.70;100117.00;;;;10392848;28;20209;-78
2021/12/24 05:31:43;;;;;;;49.30;21.37;;;;;8.70;100112.00;;;;10370492;28;20191;-78
2021/12/24 05:37:20;;;;;;;46.33;21.40;;;;;8.60;100121.00;;;;10389833;28;20215;-78
2021/12/24 05:42:57;;;;;;;49.77;22.33;;;;;8.60;100111.00;;;;10371893;28;20222;-78
2021/12/24 05:48:33;;;;;;;50.30;23.33;;;;;8.60;100106.00;;;;10395086;28;20758;-78
2021/12/24 05:54:12;;;;;;;51.70;23.90;;;;;8.60;100115.00;;;;10358720;28;20257;-78
2021/12/24 05:59:51;;;;;;;42.77;21.50;;;;;8.60;100109.00;;;;10412974;28;20735;-78
2021/12/24 06:05:33;;;;;;;50.33;21.53;;;;;8.60;100118.00;;;;10388680;28;20217;-78
2021/12/24 06:11:09;;;;;;;42.50;21.87;;;;;8.60;100119.00;;;;10413724;28;20373;-78
2021/12/24 06:17:14;;;;;;;42.70;20.37;;;;;8.60;100109.00;;;;10412269;28;20190;-78
2021/12/24 06:22:44;;;;;;;38.90;21.20;;;;;8.50;100126.00;;;;10416363;28;20302;-78
2021/12/24 06:28:19;;;;;;;41.60;21.20;;;;;8.50;100132.00;;;;10376325;28;20281;-78
2021/12/24 06:33:59;;;;;;;41.67;21.37;;;;;8.50;100120.00;;;;10380949;28;20211;-77
2021/12/24 06:39:36;;;;;;;38.87;22.37;;;;;8.50;100114.00;;;;10380599;28;20186;-78
2021/12/24 06:45:12;;;;;;;50.00;22.33;;;;;8.50;100116.00;;;;10395003;28;20234;-78
2021/12/24 06:50:50;;;;;;;45.83;23.07;;;;;8.50;100119.00;;;;10389256;28;20689;-78
2021/12/24 06:56:27;;;;;;;50.13;24.40;;;;;8.50;100122.00;;;;10394397;28;20191;-78
2021/12/24 07:02:03;;;;;;;47.20;26.17;;;;;8.40;100111.00;;;;10367905;28;20195;-78
2021/12/24 07:07:39;;;;;;;49.23;24.70;;;;;8.30;100114.00;;;;10386611;28;20207;-78
2021/12/24 07:13:15;;;;;;;49.37;25.10;;;;;8.20;100121.00;;;;10371255;28;20876;-78
2021/12/24 07:18:51;;;;;;;45.00;23.03;;;;;8.10;100122.00;;;;10403403;28;20197;-78
2021/12/24 07:24:27;;;;;;;51.60;23.97;;;;;8.00;100130.00;;;;10353235;28;20212;-78
2021/12/24 07:30:03;;;;;;;45.10;21.47;;;;;8.10;100141.00;;;;10352172;28;20201;-78
2021/12/24 07:35:39;;;;;;;44.93;23.00;;;;;8.20;100132.00;;;;10394488;28;20305;-78
2021/12/24 07:41:17;;;;;;;43.13;21.40;;;;;8.20;100135.00;;;;10383068;28;20202;-78
2021/12/24 07:46:56;;;;;;;40.17;21.57;;;;;8.20;100139.00;;;;10394850;28;20221;-78
2021/12/24 07:52:32;;;;;;;43.93;21.10;;;;;8.20;100125.00;;;;10387540;28;20208;-78
2021/12/24 07:58:17;;;;;;;41.00;21.37;;;;;8.20;100128.00;;;;10382789;28;20196;-78
2021/12/24 08:03:53;;;;;;;41.30;22.23;;;;;8.20;100127.00;;;;10376112;28;20209;-78
2021/12/24 08:09:30;;;;;;;39.67;22.40;;;;;8.20;100107.00;;;;10367229;28;20246;-78
2021/12/24 08:15:07;;;;;;;49.97;23.43;;;;;8.20;100118.00;;;;10390552;28;20195;-78
2021/12/24 08:20:43;;;;;;;51.73;23.27;;;;;8.20;100127.00;;;;10416453;28;20199;-78
2021/12/24 08:26:19;;;;;;;45.47;23.53;;;;;8.20;100129.00;;;;10385416;28;20700;-78
2021/12/24 08:31:57;;;;;;;36.40;22.60;;;;;8.20;100108.00;;;;10389120;28;20290;-78
2021/12/24 08:37:33;;;;;;;47.57;24.63;;;;;8.30;100109.00;;;;10401038;28;20221;-78
2021/12/24 08:43:09;;;;;;;44.47;23.07;;;;;8.40;100098.00;;;;10394063;28;20954;-78
2021/12/24 08:48:45;;;;;;;45.63;22.07;;;;;8.40;100103.00;;;;10332112;28;20290;-78
2021/12/24 08:54:21;;;;;;;40.63;22.77;;;;;8.50;100110.00;;;;10386660;28;20293;-78
2021/12/24 08:59:57;;;;;;;39.70;23.03;;;;;8.60;100120.00;;;;10386558;28;20690;-78
2021/12/24 09:05:33;;;;;;;37.70;23.37;;;;;8.50;100112.00;;;;10384756;28;20200;-78
2021/12/24 09:11:09;;;;;;;50.50;23.90;;;;;8.50;100133.00;;;;10385415;28;20715;-78
2021/12/24 09:16:46;;;;;;;42.00;22.93;;;;;8.50;100123.00;;;;10378720;28;20202;-78
2021/12/24 09:22:29;;;;;;;46.60;22.73;;;;;8.60;100110.00;;;;10403622;28;20195;-78
2021/12/24 09:28:06;;;;;;;43.83;22.40;;;;;8.70;100112.00;;;;10365170;28;20198;-78
2021/12/24 09:33:42;;;;;;;49.10;22.60;;;;;8.70;100118.00;;;;10355304;28;20218;-78
2021/12/24 09:39:18;;;;;;;46.63;22.50;;;;;8.70;100110.00;;;;10393433;28;20225;-78
2021/12/24 09:44:55;;;;;;;51.97;25.07;;;;;8.80;100114.00;;;;10390518;28;20930;-78
2021/12/24 09:50:32;;;;;;;51.83;25.57;;;;;9.00;100113.00;;;;10399149;28;20282;-78
2021/12/24 09:56:13;;;;;;;49.23;23.87;;;;;9.10;100111.00;;;;10397365;28;20192;-77
2021/12/24 10:02:00;;;;;;;42.70;21.83;;;;;9.40;100110.00;;;;10357760;28;20256;-78
2021/12/24 10:07:42;;;;;;;41.50;21.27;;;;;9.40;100113.00;;;;10400680;28;20217;-78
2021/12/24 10:13:34;;;;;;;46.43;23.67;;;;;9.30;100105.00;;;;10392881;28;20195;-77
2021/12/24 10:18:39;;;;;;;45.40;24.47;;;;;9.20;100104.00;;;;10431033;28;20195;-78
2021/12/24 10:24:04;;;;;;;50.43;24.07;;;;;9.20;100087.00;;;;10403240;28;20210;-78
2021/12/24 10:29:12;;;;;;;39.07;20.77;;;;;9.00;100093.00;;;;10447948;28;20206;-78
2021/12/24 10:34:16;;;;;;;40.03;20.13;;;;;9.00;100085.00;;;;10386119;28;20649;-78
2021/12/24 10:39:21;;;;;;;37.83;19.37;;;;;9.10;100091.00;;;;10452103;28;20263;-77
2021/12/24 10:44:28;;;;;;;31.67;17.43;;;;;9.10;100096.00;;;;10402171;28;20556;-77
2021/12/24 10:49:49;;;;;;;28.33;16.33;;;;;9.20;100087.00;;;;10402707;28;20566;-77
2021/12/24 10:55:02;;;;;;;34.93;18.43;;;;;9.40;100088.00;;;;10392206;28;20221;-77
2021/12/24 11:00:04;;;;;;;43.30;18.90;;;;;9.70;100082.00;;;;10376023;28;20206;-77
2021/12/24 11:05:26;;;;;;;30.40;16.20;;;;;9.80;100076.00;;;;10421486;28;20214;-77
2021/12/24 11:10:32;;;;;;;34.97;17.47;;;;;9.90;100070.00;;;;10407669;28;20214;-77
2021/12/24 11:15:54;;;;;;;24.23;15.43;;;;;10.00;100073.00;;;;10428601;28;20199;-77
2021/12/24 11:21:00;;;;;;;26.50;14.60;;;;;10.00;100066.00;;;;10343991;28;20568;-77
2021/12/24 11:26:11;;;;;;;20.07;12.83;;;;;10.00;100064.00;;;;10408427;28;20593;-77
2021/12/24 11:31:19;;;;;;;24.33;12.47;;;;;10.00;100063.00;;;;10400554;28;20199;-77
2021/12/24 11:36:25;;;;;;;21.63;12.57;;;;;10.20;100053.00;;;;10401308;28;20310;-78
2021/12/24 11:41:32;;;;;;;23.67;13.47;;;;;10.60;100059.00;;;;10429965;28;20209;-77
2021/12/24 11:46:40;;;;;;;23.77;14.13;;;;;10.50;100060.00;;;;10431946;28;20797;-77
2021/12/24 11:51:43;;;;;;;27.60;13.17;;;;;10.30;100048.00;;;;10399410;28;20195;-78
2021/12/24 11:56:54;;;;;;;25.80;11.87;;;;;10.40;100036.00;;;;10393514;28;20199;-78
2021/12/24 12:01:57;;;;;;;22.43;12.60;;;;;10.70;100028.00;;;;10368770;28;20664;-78
2021/12/24 12:07:17;;;;;;;22.20;12.47;;;;;10.60;100024.00;;;;10403656;28;20297;-77
2021/12/24 12:12:34;;;;;;;21.93;12.00;;;;;10.50;100023.00;;;;10389498;28;20209;-77
2021/12/24 12:17:49;;;;;;;26.83;12.13;;;;;10.50;100019.00;;;;10383079;28;20274;-77
2021/12/24 12:22:56;;;;;;;26.27;11.53;;;;;10.40;100018.00;;;;10404829;28;20256;-76
2021/12/24 12:28:02;;;;;;;19.80;11.73;;;;;10.50;100018.00;;;;10423950;28;20641;-78
2021/12/24 12:33:13;;;;;;;22.13;12.10;;;;;10.60;100022.00;;;;10404385;28;20697;-77
2021/12/24 12:38:23;;;;;;;21.30;11.90;;;;;10.70;100026.00;;;;10391007;28;20202;-78
2021/12/24 12:43:26;;;;;;;21.27;12.13;;;;;10.50;100022.00;;;;10414694;28;20202;-78
2021/12/24 12:48:43;;;;;;;23.93;13.10;;;;;10.50;100022.00;;;;10401092;28;20199;-77
2021/12/24 12:53:47;;;;;;;22.97;14.63;;;;;10.50;100006.00;;;;10389386;28;20550;-78
2021/12/24 12:59:06;;;;;;;22.93;13.47;;;;;10.70;99997.00;;;;10417900;28;20190;-77
2021/12/24 13:04:11;;;;;;;26.87;14.07;;;;;10.90;99989.00;;;;10398857;28;20234;-77
2021/12/24 13:09:38;;;;;;;22.30;13.77;;;;;11.10;99978.00;;;;10423445;28;20232;-77
2021/12/24 13:14:40;;;;;;;23.10;14.13;;;;;11.20;99960.00;;;;10448369;28;20194;-77
2021/12/24 13:24:55;;;;;;;18.57;13.23;;;;;11.60;99975.00;;;;10480501;28;20205;-77
2021/12/24 13:30:09;;;;;;;21.70;12.70;;;;;11.30;99972.00;;;;10430745;28;20720;-77
2021/12/24 13:35:12;;;;;;;21.10;12.77;;;;;11.10;99970.00;;;;10414075;28;20268;-78
2021/12/24 13:40:20;;;;;;;21.77;13.23;;;;;11.00;99963.00;;;;10426785;28;20629;-77
2021/12/24 13:45:25;;;;;;;21.77;13.73;;;;;10.80;99968.00;;;;10405739;28;20214;-77
2021/12/24 13:55:57;;;;;;;22.73;13.20;;;;;10.40;99978.00;;;;10404528;28;20241;-78
2021/12/24 14:01:01;;;;;;;24.90;13.97;;;;;10.20;99971.00;;;;10388691;28;20195;-78
2021/12/24 14:06:05;;;;;;;22.73;13.30;;;;;9.90;99977.00;;;;10378170;28;20238;-78
2021/12/24 14:11:12;;;;;;;20.83;13.27;;;;;9.80;99972.00;;;;10405139;28;20248;-78
2021/12/24 14:26:37;;;;;;;20.53;13.80;;;;;9.90;99971.00;;;;10432115;28;20669;-78
2021/12/24 14:31:51;;;;;;;22.43;14.07;;;;;9.90;99974.00;;;;10434569;28;20191;-77
2021/12/24 14:37:20;;;;;;;25.53;15.03;;;;;9.80;99972.00;;;;10427059;28;20210;-78
2021/12/24 14:42:37;;;;;;;26.13;16.43;;;;;9.70;99986.00;;;;10421533;28;20248;-77
2021/12/24 14:47:42;;;;;;;25.57;16.53;;;;;9.60;99982.00;;;;10424493;28;20618;-77
2021/12/24 14:52:44;;;;;;;29.60;15.93;;;;;9.50;99989.00;;;;10408010;28;20207;-78
2021/12/24 14:57:54;;;;;;;27.03;16.20;;;;;9.50;99988.00;;;;10422734;28;20202;-78
2021/12/24 15:02:57;;;;;;;27.53;15.60;;;;;9.40;99984.00;;;;10399789;28;20198;-77
2021/12/24 15:08:12;;;;;;;23.27;17.33;;;;;9.40;99980.00;;;;10387550;28;20207;-78
2021/12/24 15:13:19;;;;;;;26.60;16.73;;;;;9.30;99985.00;;;;10419334;28;20281;-78
2021/12/24 15:18:22;;;;;;;24.37;16.13;;;;;9.30;99987.00;;;;10411464;28;20203;-77
2021/12/24 15:23:25;;;;;;;29.03;17.10;;;;;9.30;99988.00;;;;10373231;28;20186;-77
2021/12/24 15:28:27;;;;;;;22.50;16.00;;;;;9.20;99972.00;;;;10399614;28;20249;-78
2021/12/24 15:33:29;;;;;;;25.37;16.77;;;;;9.20;99975.00;;;;10389670;28;20265;-78
2021/12/24 15:38:31;;;;;;;29.00;18.47;;;;;9.10;99968.00;;;;10381557;28;20194;-78
2021/12/24 15:43:34;;;;;;;26.67;18.07;;;;;9.00;99966.00;;;;10389430;28;20229;-78
2021/12/24 15:48:37;;;;;;;27.50;18.73;;;;;9.00;99961.00;;;;10399799;28;20681;-77
2021/12/24 15:53:39;;;;;;;30.83;19.17;;;;;8.90;99968.00;;;;10383530;28;20191;-77
2021/12/24 15:58:42;;;;;;;30.73;19.43;;;;;8.90;99968.00;;;;10366890;28;20666;-78
2021/12/24 16:03:44;;;;;;;34.20;19.50;;;;;8.80;99968.00;;;;10388303;28;20198;-78
2021/12/24 16:08:47;;;;;;;33.07;22.03;;;;;8.80;99972.00;;;;10431289;28;20612;-77
2021/12/24 16:13:49;;;;;;;33.93;21.23;;;;;8.80;99988.00;;;;10398970;28;20199;-77
2021/12/24 16:18:51;;;;;;;32.63;20.77;;;;;8.70;99977.00;;;;10397926;28;20203;-77
2021/12/24 16:23:53;;;;;;;32.43;22.07;;;;;8.70;99983.00;;;;10415770;28;20211;-77
2021/12/24 16:28:55;;;;;;;34.47;22.30;;;;;8.70;99983.00;;;;10415986;28;20249;-78
2021/12/24 16:33:57;;;;;;;33.30;21.60;;;;;8.70;99981.00;;;;10392119;28;20773;-77
2021/12/24 16:38:59;;;;;;;33.50;21.23;;;;;8.70;99984.00;;;;10404519;28;20955;-77
2021/12/24 16:44:01;;;;;;;36.50;21.17;;;;;8.70;99968.00;;;;10421247;28;20228;-78
2021/12/24 16:49:03;;;;;;;33.23;21.33;;;;;8.70;99980.00;;;;10422748;28;20225;-77
2021/12/24 16:54:05;;;;;;;32.73;19.80;;;;;8.70;99977.00;;;;10439013;28;20248;-78
2021/12/24 16:59:08;;;;;;;32.27;19.97;;;;;8.70;99985.00;;;;10439939;28;20531;-78
2021/12/24 17:04:10;;;;;;;32.43;20.20;;;;;8.70;99970.00;;;;10423121;28;20276;-78
2021/12/24 17:09:13;;;;;;;36.53;21.50;;;;;8.70;99972.00;;;;10438987;28;20205;-78
2021/12/24 17:14:15;;;;;;;32.63;21.70;;;;;8.60;99966.00;;;;10415222;28;20249;-78
2021/12/24 17:19:17;;;;;;;36.77;22.23;;;;;8.50;99959.00;;;;10398094;28;20226;-77
2021/12/24 17:24:19;;;;;;;31.30;20.83;;;;;8.40;99956.00;;;;10398060;28;20277;-77
2021/12/24 17:29:23;;;;;;;37.07;21.93;;;;;8.30;99958.00;;;;10414021;28;20226;-78
2021/12/24 17:34:25;;;;;;;36.33;23.30;;;;;8.20;99967.00;;;;10414812;28;20215;-77
2021/12/24 17:39:27;;;;;;;35.67;23.27;;;;;8.20;99961.00;;;;10416345;28;20210;-77
2021/12/24 17:44:28;;;;;;;38.10;23.07;;;;;8.10;99963.00;;;;10454708;28;20669;-77
2021/12/24 17:49:33;;;;;;;39.33;24.23;;;;;8.20;99960.00;;;;10472225;28;20240;-77
2021/12/24 17:54:36;;;;;;;44.03;25.20;;;;;8.20;99966.00;;;;10429334;28;20201;-78
2021/12/24 17:59:38;;;;;;;43.93;25.57;;;;;8.20;99955.00;;;;10446095;28;20190;-77
2021/12/24 18:04:40;;;;;;;46.00;24.67;;;;;8.20;99965.00;;;;10462282;28;20209;-77
2021/12/24 18:09:42;;;;;;;46.97;23.93;;;;;8.20;99967.00;;;;10461820;28;20546;-77
2021/12/24 18:14:44;;;;;;;46.40;24.47;;;;;8.20;99959.00;;;;10428862;28;20240;-77
2021/12/24 18:19:46;;;;;;;46.20;23.93;;;;;8.30;99969.00;;;;10444489;28;20566;-78
2021/12/24 18:24:48;;;;;;;48.10;23.30;;;;;8.30;99970.00;;;;10410328;28;20682;-78
2021/12/24 18:29:49;;;;;;;43.40;21.97;;;;;8.30;99961.00;;;;10387485;28;20786;-78
2021/12/24 18:34:51;;;;;;;45.00;22.63;;;;;8.20;99957.00;;;;10437319;28;20203;-77
2021/12/24 18:39:53;;;;;;;42.20;22.47;;;;;8.10;99944.00;;;;10409361;28;20256;-77
2021/12/24 18:44:55;;;;;;;43.97;23.03;;;;;8.00;99954.00;;;;10444451;28;20215;-78
2021/12/24 18:49:57;;;;;;;44.40;21.63;;;;;7.80;99953.00;;;;10460791;28;20669;-78
2021/12/24 18:55:00;;;;;;;49.00;23.40;;;;;7.70;99951.00;;;;10461742;28;20189;-78
2021/12/24 19:00:04;;;;;;;55.10;24.03;;;;;7.50;99951.00;;;;10443713;28;20194;-78
2021/12/24 19:05:07;;;;;;;50.50;24.00;;;;;7.40;99946.00;;;;10459305;28;20218;-78
2021/12/24 19:10:11;;;;;;;51.87;24.77;;;;;7.30;99944.00;;;;10443486;28;20327;-77
2021/12/24 19:15:18;;;;;;;49.20;23.53;;;;;7.20;99956.00;;;;10460126;28;20244;-78
2021/12/24 19:20:22;;;;;;;48.47;25.57;;;;;7.10;99943.00;;;;10460336;28;20236;-77
2021/12/24 19:25:24;;;;;;;46.13;25.63;;;;;7.10;99948.00;;;;10424888;28;20634;-77
2021/12/24 19:30:27;;;;;;;57.90;27.23;;;;;7.20;99948.00;;;;10400713;28;20202;-78
2021/12/24 19:35:29;;;;;;;50.10;25.73;;;;;7.20;99945.00;;;;10400377;28;20207;-77
2021/12/24 19:40:32;;;;;;;47.17;25.23;;;;;7.20;99949.00;;;;10384667;28;20203;-77
2021/12/24 19:45:35;;;;;;;54.27;28.40;;;;;7.20;99950.00;;;;10429385;28;20263;-77
2021/12/24 19:50:38;;;;;;;54.40;28.23;;;;;7.10;99946.00;;;;10441352;28;20220;-77
2021/12/24 19:55:40;;;;;;;61.63;31.20;;;;;7.10;99944.00;;;;10441277;28;20245;-78
2021/12/24 20:00:43;;;;;;;59.97;30.33;;;;;7.10;99954.00;;;;10425422;28;20443;-77
2021/12/24 20:05:46;;;;;;;54.83;31.00;;;;;7.10;99959.00;;;;10440641;28;20384;-77
2021/12/24 20:10:50;;;;;;;63.37;31.40;;;;;7.10;99954.00;;;;10410722;28;20203;-78
2021/12/24 20:15:52;;;;;;;53.77;31.80;;;;;7.10;99953.00;;;;10399014;28;20245;-77
2021/12/24 20:20:54;;;;;;;59.73;32.23;;;;;7.10;99960.00;;;;10383227;28;20268;-77
2021/12/24 20:25:57;;;;;;;69.67;34.47;;;;;7.10;99965.00;;;;10398976;28;20702;-77
2021/12/24 20:30:59;;;;;;;62.43;33.73;;;;;7.10;99960.00;;;;10399177;28;20297;-78
2021/12/24 20:36:01;;;;;;;64.53;34.23;;;;;7.10;99944.00;;;;10415103;28;20203;-77
2021/12/24 20:41:04;;;;;;;63.93;32.87;;;;;7.10;99939.00;;;;10415777;28;20202;-78
2021/12/24 20:46:06;;;;;;;65.07;34.23;;;;;7.20;99927.00;;;;10398737;28;20230;-77
2021/12/24 20:51:09;;;;;;;62.30;35.03;;;;;7.20;99926.00;;;;10431189;28;20237;-77
2021/12/24 20:56:12;;;;;;;67.90;36.13;;;;;7.20;99932.00;;;;10415129;28;20313;-78
2021/12/24 21:01:14;;;;;;;70.77;36.93;;;;;7.20;99926.00;;;;10414420;28;20183;-77
2021/12/24 21:06:16;;;;;;;67.70;34.93;;;;;7.20;99918.00;;;;10399573;28;20211;-77
2021/12/24 21:11:18;;;;;;;68.73;35.93;;;;;7.20;99918.00;;;;10440471;28;20206;-77
2021/12/24 21:16:20;;;;;;;69.87;37.93;;;;;7.20;99916.00;;;;10453808;28;20216;-77
2021/12/24 21:21:23;;;;;;;68.83;37.43;;;;;7.20;99914.00;;;;10443901;28;20233;-77
2021/12/24 21:26:29;;;;;;;68.37;36.47;;;;;7.10;99922.00;;;;10401222;28;20252;-77
2021/12/24 21:31:33;;;;;;;72.63;35.83;;;;;7.10;99897.00;;;;10404518;28;20276;-78
2021/12/24 21:36:35;;;;;;;66.23;34.23;;;;;7.10;99902.00;;;;10422044;28;20298;-77
2021/12/24 21:41:37;;;;;;;63.53;33.87;;;;;7.10;99896.00;;;;10441645;28;20213;-77
2021/12/24 21:46:40;;;;;;;64.73;34.57;;;;;7.10;99901.00;;;;10462885;28;20210;-77
2021/12/24 21:51:42;;;;;;;69.00;32.37;;;;;7.10;99901.00;;;;10462314;28;20646;-77
2021/12/24 21:56:44;;;;;;;62.10;32.00;;;;;7.10;99895.00;;;;10418229;28;20551;-77
2021/12/24 22:01:46;;;;;;;61.53;33.77;;;;;7.10;99906.00;;;;10363393;28;20196;-77
2021/12/24 22:12:12;;;;;;;65.90;34.77;;;;;7.10;99895.00;;;;10363507;28;20188;-77
2021/12/24 22:17:16;;;;;;;61.73;34.63;;;;;7.10;99897.00;;;;10412841;28;20226;-77
2021/12/24 22:22:30;;;;;;;65.83;36.13;;;;;7.00;99899.00;;;;10379145;28;20243;-77
2021/12/24 22:27:37;;;;;;;84.43;42.53;;;;;7.00;99900.00;;;;10379869;28;20207;-78
2021/12/24 22:32:40;;;;;;;76.87;39.20;;;;;7.00;99914.00;;;;10379350;28;20577;-77
2021/12/24 22:37:43;;;;;;;71.67;38.53;;;;;7.00;99919.00;;;;10366777;28;20195;-78
2021/12/24 22:42:45;;;;;;;78.93;38.43;;;;;7.00;99924.00;;;;10403396;28;20202;-77
2021/12/24 22:47:47;;;;;;;64.80;34.67;;;;;6.90;99926.00;;;;10402878;28;20262;-78
2021/12/24 22:52:49;;;;;;;72.43;34.17;;;;;6.90;99936.00;;;;10418605;28;20195;-78
2021/12/24 22:57:54;;;;;;;68.83;34.07;;;;;6.90;99932.00;;;;10419079;28;20547;-78
2021/12/24 23:02:56;;;;;;;68.97;34.50;;;;;6.90;99929.00;;;;10412620;28;20213;-78
2021/12/24 23:07:58;;;;;;;68.57;35.00;;;;;6.80;99919.00;;;;10442503;28;20217;-78
2021/12/24 23:13:02;;;;;;;72.17;35.50;;;;;6.80;99916.00;;;;10442679;28;20193;-79
2021/12/24 23:18:04;;;;;;;69.03;37.57;;;;;6.80;99904.00;;;;10443002;28;20187;-79
2021/12/24 23:23:07;;;;;;;71.40;38.07;;;;;6.80;99897.00;;;;10442804;28;20202;-78
2021/12/24 23:28:09;;;;;;;74.00;36.57;;;;;6.70;99896.00;;;;10435107;28;20214;-78
2021/12/24 23:33:11;;;;;;;75.00;38.23;;;;;6.70;99895.00;;;;10442074;28;20241;-79
2021/12/24 23:38:13;;;;;;;76.80;37.80;;;;;6.70;99883.00;;;;10426027;28;20198;-79
2021/12/24 23:43:25;;;;;;;79.73;37.40;;;;;6.70;99873.00;;;;10441249;28;20202;-79
2021/12/24 23:48:28;;;;;;;74.67;37.30;;;;;6.70;99870.00;;;;10440519;28;20268;-79
2021/12/24 23:53:30;;;;;;;83.80;38.80;;;;;6.70;99861.00;;;;10441096;28;20680;-79
2021/12/24 23:58:35;;;;;;;75.07;37.30;;;;;6.70;99855.00;;;;10441301;28;20194;-79
